Time;durP1;ratioP1;P1;durP2;ratioP2;P2;SDS_P1;SDS_P2;PMS_P1;PMS_P2;Temp;Humidity;BMP_temperature;BMP_pressure;BME280_temperature;BME280_humidity;BME280_pressure;Samples;Min_cycle;Max_cycle;Signal;HPM_P1;HPM_P2
2023/08/02 00:00:09;;;;;;;14.43;4.45;;;;;;;19.53;100.00;93627.53;5055278;28;20041;-87
2023/08/02 00:02:34;;;;;;;11.70;4.32;;;;;;;19.52;100.00;93637.41;5055883;28;20032;-87
2023/08/02 00:05:00;;;;;;;10.10;3.78;;;;;;;19.58;100.00;93640.56;5055304;28;20036;-87
2023/08/02 00:07:25;;;;;;;10.40;4.00;;;;;;;19.72;100.00;93643.56;5055721;28;20435;-87
2023/08/02 00:09:50;;;;;;;8.73;4.30;;;;;;;19.58;100.00;93635.25;5038430;28;20052;-87
2023/08/02 00:12:35;;;;;;;13.27;4.20;;;;;;;19.66;100.00;93633.56;5039012;28;20033;-87
2023/08/02 00:15:19;;;;;;;14.73;4.18;;;;;;;19.52;100.00;93645.38;5056802;28;20033;-87
2023/08/02 00:17:44;;;;;;;10.75;4.32;;;;;;;19.17;100.00;93653.94;5055257;28;20064;-87
2023/08/02 00:20:10;;;;;;;12.80;4.72;;;;;;;19.21;100.00;93662.78;5055057;28;20102;-87
2023/08/02 00:22:35;;;;;;;10.32;3.78;;;;;;;19.14;100.00;93659.94;5055567;28;20025;-87
2023/08/02 00:25:01;;;;;;;12.50;4.00;;;;;;;19.20;100.00;93663.88;5055355;28;20029;-86
2023/08/02 00:27:27;;;;;;;8.98;3.90;;;;;;;19.01;100.00;93664.50;5055139;28;20029;-87
2023/08/02 00:29:52;;;;;;;14.63;4.43;;;;;;;19.01;100.00;93667.16;5055042;28;20036;-87
2023/08/02 00:32:18;;;;;;;16.58;4.47;;;;;;;19.14;100.00;93678.53;5056337;28;20375;-87
2023/08/02 00:35:02;;;;;;;11.13;3.85;;;;;;;18.99;100.00;93679.97;5055503;28;20033;-88
2023/08/02 00:40:13;;;;;;;9.57;3.78;;;;;;;18.96;100.00;93673.50;5055040;28;20082;-87
2023/08/02 00:42:38;;;;;;;14.23;4.25;;;;;;;19.10;100.00;93680.31;5038632;28;20036;-87
2023/08/02 00:45:04;;;;;;;10.30;3.17;;;;;;;19.04;100.00;93672.59;5054781;28;20040;-87
2023/08/02 00:47:32;;;;;;;14.98;4.18;;;;;;;18.67;100.00;93667.38;5056554;28;20071;-87
2023/08/02 00:49:57;;;;;;;11.45;4.50;;;;;;;18.83;100.00;93670.09;5054474;28;20036;-87
2023/08/02 00:52:23;;;;;;;10.60;4.00;;;;;;;18.81;100.00;93672.31;5054744;28;20094;-87
2023/08/02 00:55:07;;;;;;;13.80;4.22;;;;;;;18.92;100.00;93686.66;5054919;28;20044;-87
2023/08/02 00:57:32;;;;;;;11.35;4.03;;;;;;;18.84;100.00;93673.53;5055549;28;20025;-88
2023/08/02 00:59:58;;;;;;;11.77;3.92;;;;;;;18.94;100.00;93679.13;5037575;28;20123;-87
2023/08/02 01:05:08;;;;;;;16.02;4.38;;;;;;;18.76;100.00;93683.16;5034840;28;20755;-87
2023/08/02 01:07:59;;;;;;;13.40;4.13;;;;;;;18.88;100.00;93687.66;5034501;28;20045;-87
2023/08/02 01:10:51;;;;;;;10.48;4.07;;;;;;;18.57;100.00;93687.16;5060689;28;20330;-88
2023/08/02 01:16:00;;;;;;;12.07;4.43;;;;;;;18.23;100.00;93679.38;5034645;28;20040;-87
2023/08/02 01:21:10;;;;;;;8.65;4.10;;;;;;;18.49;100.00;93678.22;5040954;28;20065;-87
2023/08/02 01:23:54;;;;;;;14.20;4.80;;;;;;;18.55;100.00;93670.81;5034352;28;20033;-87
2023/08/02 01:26:20;;;;;;;9.98;3.85;;;;;;;18.67;100.00;93667.38;5056143;28;20120;-88
2023/08/02 01:28:47;;;;;;;7.57;3.78;;;;;;;18.74;100.00;93666.81;5050649;28;20171;-87
2023/08/02 01:31:15;;;;;;;12.95;4.47;;;;;;;18.58;100.00;93661.41;5053991;28;20028;-88
2023/08/02 01:33:52;;;;;;;11.90;4.60;;;;;;;18.29;100.00;93663.22;5054035;28;20029;-87
2023/08/02 01:36:17;;;;;;;14.52;4.55;;;;;;;18.16;100.00;93665.88;5054156;28;20075;-87
2023/08/02 01:38:43;;;;;;;10.30;3.75;;;;;;;18.31;100.00;93666.31;5053834;28;20057;-87
2023/08/02 01:41:08;;;;;;;10.05;4.03;;;;;;;18.42;100.00;93662.13;5053980;28;20041;-87
2023/08/02 01:43:34;;;;;;;11.13;3.97;;;;;;;18.45;100.00;93666.75;5053830;28;20087;-86
2023/08/02 01:45:59;;;;;;;10.40;3.88;;;;;;;18.23;100.00;93662.69;5053385;28;20445;-87
2023/08/02 01:48:26;;;;;;;13.50;4.70;;;;;;;18.29;100.00;93666.69;5053702;28;20028;-86
2023/08/02 01:50:52;;;;;;;8.38;3.40;;;;;;;18.45;100.00;93655.38;5055561;28;20430;-87
2023/08/02 01:53:36;;;;;;;11.95;4.22;;;;;;;18.54;100.00;93663.22;5048730;28;20045;-87
2023/08/02 01:56:20;;;;;;;12.35;4.63;;;;;;;18.45;100.00;93658.03;5039762;28;20425;-87
2023/08/02 01:58:45;;;;;;;13.10;4.38;;;;;;;18.43;100.00;93665.53;5039279;28;20029;-88
2023/08/02 02:01:11;;;;;;;11.57;4.20;;;;;;;18.39;100.00;93662.00;5039365;28;20028;-87
2023/08/02 02:03:36;;;;;;;11.98;4.15;;;;;;;18.44;100.00;93659.13;5039086;28;20025;-88
2023/08/02 02:06:39;;;;;;;14.85;4.18;;;;;;;18.66;100.00;93655.22;5022965;28;20296;-87
2023/08/02 02:11:49;;;;;;;;;;;;;;;18.35;100.00;93648.63;5039949;28;20032;-88
2023/08/02 02:14:14;;;;;;;11.25;4.20;;;;;;;18.18;100.00;93647.78;5039223;28;20226;-88
2023/08/02 02:16:40;;;;;;;14.82;3.85;;;;;;;18.29;100.00;93645.47;5039142;28;20022;-88
2023/08/02 02:19:05;;;;;;;12.70;4.13;;;;;;;18.45;100.00;93652.72;5040113;28;20036;-87
2023/08/02 02:21:49;;;;;;;11.13;4.30;;;;;;;18.46;100.00;93651.63;5039052;28;20033;-88
2023/08/02 02:24:15;;;;;;;10.80;3.90;;;;;;;18.30;100.00;93649.66;5039830;28;20076;-87
2023/08/02 02:26:40;;;;;;;9.82;3.90;;;;;;;18.38;100.00;93653.28;5038789;28;20029;-88
2023/08/02 02:29:05;;;;;;;10.40;4.28;;;;;;;18.39;100.00;93651.41;5022517;28;20378;-87
2023/08/02 02:31:31;;;;;;;15.82;4.20;;;;;;;18.31;100.00;93648.56;5038893;28;20033;-87
2023/08/02 02:34:15;;;;;;;13.65;4.32;;;;;;;17.81;100.00;93651.16;5022721;28;20045;-87
2023/08/02 02:36:43;;;;;;;14.27;4.07;;;;;;;17.65;100.00;93652.94;5038742;28;20039;-88
2023/08/02 02:39:08;;;;;;;14.18;4.28;;;;;;;17.72;100.00;93658.47;5038918;28;20029;-87
2023/08/02 02:41:34;;;;;;;9.45;4.10;;;;;;;18.01;100.00;93663.88;5038909;28;20075;-87
2023/08/02 02:43:59;;;;;;;13.85;4.40;;;;;;;17.84;100.00;93657.69;5038627;28;20025;-87
2023/08/02 02:46:25;;;;;;;13.40;4.07;;;;;;;18.00;100.00;93646.44;5039617;28;20032;-87
2023/08/02 02:48:50;;;;;;;9.65;4.00;;;;;;;18.06;100.00;93647.78;5038455;28;20112;-87
2023/08/02 02:51:15;;;;;;;7.47;3.90;;;;;;;18.16;100.00;93654.53;5038679;28;20492;-88
2023/08/02 02:53:41;;;;;;;12.68;3.72;;;;;;;18.23;100.00;93652.88;5046859;28;20041;-87
2023/08/02 02:56:06;;;;;;;9.73;3.78;;;;;;;18.21;100.00;93657.72;5037204;28;20033;-87
2023/08/02 02:58:31;;;;;;;12.23;3.72;;;;;;;18.30;100.00;93654.19;5038529;28;20400;-87
2023/08/02 03:00:57;;;;;;;16.17;4.30;;;;;;;17.99;100.00;93643.00;5036713;28;20037;-87
2023/08/02 03:03:23;;;;;;;10.75;4.25;;;;;;;17.80;100.00;93643.56;5037199;28;20087;-87
2023/08/02 03:05:48;;;;;;;13.57;4.22;;;;;;;17.66;100.00;93642.00;5036742;28;20048;-87
2023/08/02 03:08:13;;;;;;;15.18;4.70;;;;;;;17.80;100.00;93654.16;5053600;28;20029;-87
2023/08/02 03:10:58;;;;;;;11.38;4.53;;;;;;;17.72;100.00;93652.38;5037734;28;20040;-87
2023/08/02 03:13:23;;;;;;;15.07;4.28;;;;;;;17.42;100.00;93655.97;5048611;28;20083;-87
2023/08/02 03:15:49;;;;;;;11.65;4.15;;;;;;;17.33;100.00;93648.13;5043952;28;20397;-87
2023/08/02 03:18:15;;;;;;;14.98;4.13;;;;;;;17.48;100.00;93651.25;5046756;28;20074;-87
2023/08/02 03:20:41;;;;;;;10.82;4.07;;;;;;;17.77;100.00;93660.88;5066750;28;20037;-87
2023/08/02 03:23:07;;;;;;;9.77;4.32;;;;;;;17.78;100.00;93656.34;5062699;28;20041;-87
2023/08/02 03:25:33;;;;;;;9.80;4.00;;;;;;;17.83;100.00;93664.09;5056154;28;20041;-87
2023/08/02 03:27:58;;;;;;;13.93;4.10;;;;;;;17.91;100.00;93660.56;5039521;28;20052;-87
2023/08/02 03:30:24;;;;;;;12.23;4.15;;;;;;;18.06;100.00;93666.34;5057226;28;20033;-87
2023/08/02 03:32:49;;;;;;;9.70;4.00;;;;;;;17.91;100.00;93668.50;5056139;28;20029;-87
2023/08/02 03:35:33;;;;;;;10.85;4.40;;;;;;;18.02;100.00;93674.19;5056171;28;20033;-87
2023/08/02 03:38:17;;;;;;;8.98;3.53;;;;;;;17.97;100.00;93670.97;5055769;28;20338;-87
2023/08/02 03:40:43;;;;;;;9.80;3.85;;;;;;;18.01;100.00;93675.28;5056868;28;20802;-86
2023/08/02 03:43:09;;;;;;;11.52;4.00;;;;;;;17.68;100.00;93678.75;5055494;28;20039;-87
2023/08/02 03:45:35;;;;;;;9.80;4.03;;;;;;;17.75;100.00;93678.22;5057019;28;20346;-87
2023/08/02 03:48:19;;;;;;;10.55;4.55;;;;;;;17.93;100.00;93684.09;5055816;28;20099;-86
2023/08/02 03:50:50;;;;;;;12.95;4.22;;;;;;;17.86;100.00;93681.19;5055233;28;20037;-87
2023/08/02 03:53:15;;;;;;;10.82;4.40;;;;;;;17.94;100.00;93683.78;5040937;28;20044;-86
2023/08/02 03:55:41;;;;;;;13.32;4.38;;;;;;;17.88;100.00;93687.72;5056705;28;20058;-87
2023/08/02 04:00:51;;;;;;;10.57;4.30;;;;;;;17.63;100.00;93690.31;5055602;28;20060;-87
2023/08/02 04:03:16;;;;;;;10.88;4.15;;;;;;;17.80;100.00;93692.03;5055647;28;20024;-87
2023/08/02 04:05:41;;;;;;;10.88;3.83;;;;;;;17.84;100.00;93686.06;5055549;28;20035;-87
2023/08/02 04:08:07;;;;;;;9.82;3.88;;;;;;;17.72;100.00;93682.31;5055591;28;20078;-87
2023/08/02 04:13:20;;;;;;;12.05;4.50;;;;;;;17.35;100.00;93692.81;5055520;28;20476;-87
2023/08/02 04:15:45;;;;;;;9.52;4.05;;;;;;;17.63;100.00;93687.69;5056803;28;20040;-87
2023/08/02 04:18:10;;;;;;;12.40;3.65;;;;;;;17.65;100.00;93690.00;5056573;28;20116;-87
2023/08/02 04:20:38;;;;;;;8.48;3.83;;;;;;;17.90;100.00;93682.09;5056076;28;20029;-87
2023/08/02 04:23:03;;;;;;;10.57;3.88;;;;;;;17.84;100.00;93670.94;5056563;28;20032;-87
2023/08/02 04:28:35;;;;;;;13.65;4.47;;;;;;;17.42;100.00;93685.09;5055908;28;20530;-87
2023/08/02 04:31:19;;;;;;;13.40;4.38;;;;;;;17.18;100.00;93688.44;5056551;28;20033;-87
2023/08/02 04:33:46;;;;;;;11.18;4.40;;;;;;;17.16;100.00;93688.00;5054711;28;20056;-87
2023/08/02 04:36:11;;;;;;;12.25;4.75;;;;;;;17.22;100.00;93695.41;5056002;28;20029;-87
2023/08/02 04:38:55;;;;;;;12.38;4.47;;;;;;;17.21;100.00;93715.03;5054479;28;20438;-87
2023/08/02 04:44:04;;;;;;;;;;;;;;;17.65;100.00;93708.56;5055242;28;20056;-86
2023/08/02 04:46:29;;;;;;;8.48;3.72;;;;;;;17.60;100.00;93709.53;5056374;28;19916;-92
2023/08/02 04:48:55;;;;;;;8.88;3.97;;;;;;;17.49;100.00;93708.41;5057560;28;20047;-94
2023/08/02 04:51:21;;;;;;;13.35;4.40;;;;;;;17.64;100.00;93702.47;5056120;28;20039;-91
2023/08/02 04:53:49;;;;;;;12.07;4.25;;;;;;;17.90;100.00;93705.94;5039163;28;20036;-92
2023/08/02 04:56:15;;;;;;;9.32;4.50;;;;;;;17.52;100.00;93697.94;5054421;28;20027;-91
2023/08/02 04:58:59;;;;;;;13.80;4.65;;;;;;;17.41;100.00;93704.72;5054174;28;20701;-93
2023/08/02 05:01:25;;;;;;;12.75;4.70;;;;;;;17.43;100.00;93699.13;5071038;28;20029;-92
2023/08/02 05:03:50;;;;;;;8.45;4.22;;;;;;;17.55;100.00;93701.81;5054561;28;20337;-91
2023/08/02 05:06:16;;;;;;;8.88;4.20;;;;;;;17.83;100.00;93709.16;5054199;28;20032;-91
2023/08/02 05:08:41;;;;;;;11.23;3.88;;;;;;;18.14;100.00;93715.81;5024411;28;20124;-91
2023/08/02 05:11:07;;;;;;;10.40;4.05;;;;;;;18.33;100.00;93711.84;5038672;28;20131;-88
2023/08/02 05:13:33;;;;;;;11.07;3.80;;;;;;;18.46;100.00;93709.97;5051768;28;20028;-88
2023/08/02 05:16:01;;;;;;;8.10;4.10;;;;;;;18.50;100.00;93716.16;5054114;28;20028;-88
2023/08/02 05:24:32;;;;;;;10.85;3.90;;;;;;;18.66;100.00;93729.50;5055122;28;20055;-89
2023/08/02 05:27:00;;;;;;;12.88;3.90;;;;;;;18.64;100.00;93726.38;5038331;28;20045;-88
2023/08/02 05:29:44;;;;;;;11.07;4.38;;;;;;;18.56;100.00;93724.66;5054281;28;20515;-88
2023/08/02 05:39:11;;;;;;;10.30;3.65;;;;;;;18.76;100.00;93710.44;5055630;28;20071;-88
2023/08/02 05:41:37;;;;;;;9.68;4.13;;;;;;;18.84;100.00;93713.31;5053917;28;20086;-87
2023/08/02 05:44:02;;;;;;;14.60;4.25;;;;;;;18.92;100.00;93715.06;5051380;28;20754;-87
2023/08/02 05:46:29;;;;;;;7.05;3.80;;;;;;;19.33;100.00;93718.50;5034315;28;20509;-89
2023/08/02 05:48:55;;;;;;;11.00;4.68;;;;;;;19.21;100.00;93718.53;5017588;28;20037;-88
2023/08/02 05:51:21;;;;;;;15.35;4.00;;;;;;;19.39;100.00;93716.38;5034252;28;20092;-89
2023/08/02 05:53:46;;;;;;;9.30;4.25;;;;;;;19.77;100.00;93714.28;5017899;28;20346;-89
2023/08/02 05:56:12;;;;;;;12.25;4.25;;;;;;;19.76;100.00;93726.03;5041277;28;20049;-90
2023/08/02 05:58:56;;;;;;;8.93;3.70;;;;;;;19.89;100.00;93722.19;5057673;28;20438;-89
2023/08/02 06:01:21;;;;;;;11.27;4.20;;;;;;;20.15;100.00;93723.59;5051176;28;20037;-89
2023/08/02 06:03:46;;;;;;;8.93;3.28;;;;;;;20.12;100.00;93732.28;5019018;28;20076;-89
2023/08/02 06:06:12;;;;;;;9.95;3.63;;;;;;;20.27;100.00;93732.59;5053371;28;20073;-87
2023/08/02 06:08:37;;;;;;;9.93;3.92;;;;;;;20.47;100.00;93736.09;5053598;28;20075;-88
2023/08/02 06:14:05;;;;;;;17.92;4.30;;;;;;;20.38;100.00;93730.19;5051688;28;20363;-87
2023/08/02 06:16:31;;;;;;;5.65;3.33;;;;;;;20.86;100.00;93730.13;5033597;28;20029;-88
2023/08/02 06:18:59;;;;;;;9.43;3.65;;;;;;;20.94;100.00;93729.13;5016918;28;20079;-87
2023/08/02 06:21:24;;;;;;;11.98;4.53;;;;;;;20.81;100.00;93720.53;5033289;28;20037;-87
2023/08/02 06:26:34;;;;;;;12.20;3.63;;;;;;;21.31;100.00;93726.09;5033627;28;20409;-89
2023/08/02 06:29:00;;;;;;;8.45;3.38;;;;;;;21.24;100.00;93735.81;5033270;28;20029;-87
2023/08/02 06:31:26;;;;;;;8.93;3.85;;;;;;;21.45;100.00;93733.59;5034973;28;20454;-88
2023/08/02 06:34:10;;;;;;;10.00;4.07;;;;;;;;;;5033783;28;20025;-87
2023/08/02 06:39:20;;;;;;;7.40;3.45;;;;;;;21.66;100.00;93734.34;5036946;28;20060;-88
2023/08/02 06:41:45;;;;;;;8.52;3.40;;;;;;;21.54;100.00;93737.91;5037347;28;20026;-89
2023/08/02 06:44:11;;;;;;;11.45;4.05;;;;;;;21.74;100.00;93734.13;5043275;28;20127;-89
2023/08/02 06:46:36;;;;;;;10.18;3.88;;;;;;;21.64;100.00;93729.34;5056916;28;20045;-88
2023/08/02 06:49:39;;;;;;;10.00;4.18;;;;;;;21.68;100.00;93734.78;5056821;28;20033;-88
2023/08/02 06:52:05;;;;;;;9.73;3.73;;;;;;;21.71;100.00;93734.06;5057783;28;20032;-87
2023/08/02 06:54:31;;;;;;;8.18;3.72;;;;;;;21.95;100.00;93734.84;5040205;28;20048;-87
2023/08/02 06:57:01;;;;;;;8.68;4.05;;;;;;;22.29;100.00;93735.78;5040250;28;20029;-88
2023/08/02 06:59:26;;;;;;;10.48;3.50;;;;;;;22.55;100.00;93739.63;5056212;28;20414;-86
2023/08/02 07:04:36;;;;;;;10.32;3.80;;;;;;;22.28;100.00;93744.91;5057269;28;20182;-88
2023/08/02 07:07:01;;;;;;;9.90;3.70;;;;;;;22.31;100.00;93751.44;5056993;28;20481;-87
2023/08/02 07:09:45;;;;;;;10.77;3.80;;;;;;;22.77;100.00;93747.19;5056440;28;20036;-86
2023/08/02 07:12:11;;;;;;;15.73;6.68;;;;;;;22.31;100.00;93743.44;5057537;28;20028;-87
2023/08/02 07:14:36;;;;;;;17.38;6.20;;;;;;;22.77;100.00;93749.84;5050741;28;20040;-87
2023/08/02 07:17:01;;;;;;;11.38;4.53;;;;;;;22.90;100.00;93743.16;5036828;28;20428;-86
2023/08/02 07:19:45;;;;;;;10.48;4.40;;;;;;;23.07;100.00;93749.09;5043691;28;20179;-87
2023/08/02 07:25:14;;;;;;;9.50;3.70;;;;;;;23.31;100.00;93750.56;5036594;28;20390;-88
2023/08/02 07:27:57;;;;;;;8.70;4.00;;;;;;;23.22;100.00;93755.41;5037274;28;20120;-88
2023/08/02 07:33:06;;;;;;;;;;;;;;;23.56;100.00;93761.56;5036782;28;20090;-87
2023/08/02 07:35:36;;;;;;;7.23;3.47;;;;;;;23.61;100.00;93765.81;5037468;28;19913;-88
2023/08/02 07:38:02;;;;;;;9.38;3.60;;;;;;;23.42;100.00;93761.41;5019788;28;20276;-87
2023/08/02 07:40:28;;;;;;;11.50;3.63;;;;;;;23.34;100.00;93771.25;5036005;28;20048;-86
2023/08/02 07:42:53;;;;;;;8.75;3.90;;;;;;;23.38;100.00;93766.69;5035861;28;20102;-86
2023/08/02 07:45:19;;;;;;;7.47;3.70;;;;;;;23.69;100.00;93766.66;5036840;28;20083;-85
2023/08/02 07:50:28;;;;;;;8.90;3.22;;;;;;;23.83;100.00;93772.16;5036498;28;20064;-87
2023/08/02 07:53:12;;;;;;;8.63;3.75;;;;;;;23.68;100.00;93770.47;5037246;28;20030;-87
2023/08/02 07:55:38;;;;;;;12.57;3.70;;;;;;;23.76;100.00;93768.66;5036975;28;20076;-85
2023/08/02 07:58:21;;;;;;;8.23;3.70;;;;;;;23.84;100.00;93763.00;5036996;28;20443;-87
2023/08/02 08:01:08;;;;;;;10.27;3.72;;;;;;;24.29;100.00;93771.06;5036324;28;20087;-87
2023/08/02 08:03:34;;;;;;;7.97;3.58;;;;;;;24.35;100.00;93763.47;5036020;28;20324;-87
2023/08/02 08:06:00;;;;;;;10.80;3.65;;;;;;;24.39;100.00;93769.63;5035679;28;20029;-86
2023/08/02 08:08:25;;;;;;;11.48;3.95;;;;;;;24.48;100.00;93773.88;5019088;28;20036;-87
2023/08/02 08:10:51;;;;;;;6.05;3.20;;;;;;;24.82;100.00;93763.06;5035115;28;20077;-88
2023/08/02 08:13:17;;;;;;;9.10;3.30;;;;;;;24.70;100.00;93761.44;5037076;28;20490;-87
2023/08/02 08:15:43;;;;;;;10.45;3.20;;;;;;;24.32;100.00;93761.53;5035383;28;20119;-88
2023/08/02 08:18:09;;;;;;;12.88;3.30;;;;;;;24.82;100.00;93766.50;5035474;28;20052;-87
2023/08/02 08:20:34;;;;;;;11.32;3.65;;;;;;;24.98;100.00;93768.91;5018570;28;20120;-86
2023/08/02 08:23:18;;;;;;;8.18;3.33;;;;;;;25.12;100.00;93770.13;5036297;28;20048;-88
2023/08/02 08:25:43;;;;;;;11.63;3.40;;;;;;;25.29;100.00;93768.66;5036154;28;20025;-86
2023/08/02 08:28:09;;;;;;;9.05;3.45;;;;;;;25.18;100.00;93765.16;5036322;28;20037;-88
2023/08/02 08:33:37;;;;;;;13.00;3.75;;;;;;;25.14;100.00;93765.16;5035066;28;20064;-87
2023/08/02 08:36:02;;;;;;;11.90;3.50;;;;;;;25.27;100.00;93763.69;5051566;28;20119;-88
2023/08/02 08:38:28;;;;;;;9.75;3.38;;;;;;;25.25;100.00;93770.56;5035208;28;20133;-86
2023/08/02 08:40:54;;;;;;;10.82;3.75;;;;;;;25.09;95.42;93770.84;5035696;28;20041;-87
2023/08/02 08:43:23;;;;;;;11.27;3.40;;;;;;;25.07;100.00;93763.22;5034870;28;20029;-87
2023/08/02 08:45:49;;;;;;;9.02;3.75;;;;;;;25.19;100.00;93767.47;5034732;28;20350;-87
2023/08/02 08:48:14;;;;;;;10.85;3.75;;;;;;;25.38;96.60;93769.09;5035209;28;20037;-84
2023/08/02 08:50:59;;;;;;;8.25;3.22;;;;;;;25.33;100.00;93772.16;5034001;28;20095;-86
2023/08/02 08:53:35;;;;;;;9.55;3.40;;;;;;;25.51;100.00;93771.47;5034305;28;20154;-87
2023/08/02 08:56:02;;;;;;;10.23;3.42;;;;;;;25.36;100.00;93767.94;5034859;28;20108;-87
2023/08/02 08:58:28;;;;;;;7.72;3.30;;;;;;;25.44;98.60;93766.81;5035911;28;20517;-86
2023/08/02 09:01:13;;;;;;;13.18;3.25;;;;;;;25.68;99.30;93767.31;5033305;28;20120;-86
2023/08/02 09:03:38;;;;;;;7.55;3.13;;;;;;;25.59;94.20;93761.53;5034562;28;20064;-85
2023/08/02 09:06:04;;;;;;;7.65;3.00;;;;;;;25.79;95.34;93770.78;5034515;28;20030;-85
2023/08/02 09:08:41;;;;;;;9.18;3.20;;;;;;;26.02;95.23;93772.38;5034296;28;20040;-87
2023/08/02 09:11:07;;;;;;;8.23;2.88;;;;;;;26.13;91.80;93774.31;5034540;28;20040;-87
2023/08/02 09:13:32;;;;;;;8.20;3.42;;;;;;;26.30;93.91;93773.59;5034684;28;20052;-86
2023/08/02 09:16:10;;;;;;;9.23;3.08;;;;;;;26.49;84.40;93774.34;5034085;28;20033;-87
2023/08/02 09:18:45;;;;;;;11.10;3.40;;;;;;;26.43;85.33;93773.97;5034320;28;20033;-86
2023/08/02 09:21:49;;;;;;;5.95;3.35;;;;;;;26.45;82.37;93771.66;5034142;28;20025;-87
2023/08/02 09:24:14;;;;;;;10.18;4.30;;;;;;;25.50;86.55;93778.75;5048356;28;20509;-90
2023/08/02 09:29:23;;;;;;;10.52;4.10;;;;;;;25.86;86.72;93766.59;5055066;28;20605;-89
2023/08/02 09:31:52;;;;;;;6.70;3.00;;;;;;;26.04;85.42;93769.28;5054249;28;20033;-88
2023/08/02 09:34:18;;;;;;;9.85;3.63;;;;;;;26.21;83.94;93767.81;5054471;28;20079;-87
2023/08/02 09:36:44;;;;;;;6.35;2.85;;;;;;;26.50;92.89;93773.97;5054413;28;20028;-88
2023/08/02 09:39:19;;;;;;;7.78;3.20;;;;;;;26.64;92.12;93773.19;5055179;28;20037;-87
2023/08/02 09:42:03;;;;;;;8.32;3.03;;;;;;;26.43;78.71;93779.31;5055354;28;20319;-89
2023/08/02 09:44:29;;;;;;;9.30;3.38;;;;;;;26.89;86.35;93777.78;5055200;28;20397;-90
2023/08/02 09:47:13;;;;;;;8.43;3.30;;;;;;;26.97;80.02;93781.22;5054378;28;20029;-89
2023/08/02 09:49:39;;;;;;;9.60;3.17;;;;;;;26.87;77.90;93779.31;5054871;28;20032;-90
2023/08/02 09:52:42;;;;;;;9.73;3.40;;;;;;;26.69;80.40;93782.78;5054340;28;20039;-88
2023/08/02 09:55:08;;;;;;;9.75;3.53;;;;;;;26.37;84.72;93789.69;5055159;28;20369;-88
2023/08/02 09:57:34;;;;;;;8.75;3.10;;;;;;;26.39;86.72;93783.94;5055560;28;20028;-90
2023/08/02 10:00:05;;;;;;;14.05;3.33;;;;;;;26.76;81.19;93782.78;5053536;28;20074;-89
2023/08/02 10:02:31;;;;;;;8.10;3.65;;;;;;;27.22;85.13;93778.47;5053818;28;20037;-88
2023/08/02 10:04:58;;;;;;;9.77;3.72;;;;;;;27.45;80.49;93779.94;5055351;28;20389;-90
2023/08/02 10:07:30;;;;;;;9.90;3.58;;;;;;;27.78;79.04;93780.59;5054128;28;20044;-88
2023/08/02 10:10:21;;;;;;;11.07;3.65;;;;;;;27.89;80.28;93779.78;5055222;28;20036;-92
2023/08/02 10:12:51;;;;;;;7.53;3.47;;;;;;;28.05;80.61;93774.66;5058535;28;20024;-87
2023/08/02 10:15:17;;;;;;;11.05;3.72;;;;;;;28.28;80.48;93781.50;5057667;28;20033;-89
2023/08/02 10:17:42;;;;;;;9.68;3.80;;;;;;;28.29;73.14;93776.84;5068081;28;20029;-89
2023/08/02 10:20:08;;;;;;;6.90;3.30;;;;;;;28.26;72.15;93778.41;5037250;28;20443;-87
2023/08/02 10:22:36;;;;;;;8.32;3.88;;;;;;;28.06;76.17;93772.75;5039090;28;20061;-90
2023/08/02 10:25:02;;;;;;;11.75;5.03;;;;;;;27.90;76.37;93773.22;5037460;28;20029;-88
2023/08/02 10:28:05;;;;;;;10.00;4.20;;;;;;;27.16;82.72;93771.97;5038815;28;20036;-89
2023/08/02 10:30:31;;;;;;;8.48;4.47;;;;;;;27.47;81.54;93766.88;5038284;28;20040;-92
2023/08/02 10:33:13;;;;;;;12.18;4.60;;;;;;;27.57;81.58;93770.69;5038518;28;20365;-91
2023/08/02 10:36:17;;;;;;;11.30;3.78;;;;;;;27.13;78.16;93774.66;5054192;28;20041;-90
2023/08/02 10:39:01;;;;;;;8.32;4.05;;;;;;;26.98;79.71;93771.25;5037737;28;20116;-89
2023/08/02 10:41:27;;;;;;;10.63;4.38;;;;;;;27.68;77.63;93772.56;5038338;28;20022;-89
2023/08/02 10:43:57;;;;;;;13.88;4.80;;;;;;;27.47;78.87;93771.47;5037342;28;20030;-91
2023/08/02 10:46:28;;;;;;;11.35;4.05;;;;;;;26.95;79.24;93764.72;5040615;28;20037;-90
2023/08/02 10:48:54;;;;;;;14.90;4.90;;;;;;;27.50;85.30;93768.78;5056856;28;20057;-90
2023/08/02 10:51:33;;;;;;;9.32;4.57;;;;;;;28.04;82.47;93773.16;5040394;28;20062;-90
2023/08/02 10:54:28;;;;;;;15.02;4.90;;;;;;;28.09;86.43;93761.94;5056953;28;20037;-89
2023/08/02 10:56:58;;;;;;;12.05;4.72;;;;;;;27.67;86.55;93769.09;5040862;28;20048;-89
2023/08/02 10:59:26;;;;;;;15.15;4.93;;;;;;;27.96;88.16;93768.94;5064558;28;20032;-90
2023/08/02 11:02:02;;;;;;;13.85;5.10;;;;;;;27.74;86.13;93765.63;5057749;28;20033;-90
2023/08/02 11:04:30;;;;;;;11.48;5.35;;;;;;;27.68;87.54;93764.50;5056837;28;20033;-91
2023/08/02 11:06:55;;;;;;;9.85;4.70;;;;;;;27.82;97.11;93763.66;5056664;28;20120;-88
2023/08/02 11:09:31;;;;;;;11.55;4.60;;;;;;;27.77;85.22;93771.00;5056240;28;20131;-90
2023/08/02 11:11:57;;;;;;;13.50;4.38;;;;;;;28.16;90.78;93766.53;5040006;28;20033;-88
2023/08/02 11:14:42;;;;;;;11.27;4.80;;;;;;;28.18;83.23;93768.84;5056416;28;20039;-86
2023/08/02 11:17:07;;;;;;;17.25;5.18;;;;;;;27.08;87.54;93762.38;5056368;28;20078;-87
2023/08/02 11:19:35;;;;;;;11.65;5.03;;;;;;;27.70;88.90;93764.88;5056282;28;20041;-88
2023/08/02 11:22:00;;;;;;;11.77;4.95;;;;;;;28.03;88.70;93768.13;5056447;28;20033;-87
2023/08/02 11:24:26;;;;;;;13.95;5.40;;;;;;;28.68;87.75;93766.91;5055492;28;20039;-88
2023/08/02 11:26:59;;;;;;;15.05;5.13;;;;;;;28.26;95.09;93769.56;5057497;28;20480;-89
2023/08/02 11:29:25;;;;;;;14.15;5.10;;;;;;;27.79;93.42;93765.97;5056046;28;20082;-88
2023/08/02 11:31:54;;;;;;;16.52;4.90;;;;;;;27.74;89.99;93758.31;5055791;28;20025;-87
2023/08/02 11:34:19;;;;;;;12.07;4.88;;;;;;;28.23;93.88;93757.66;5056489;28;20421;-89
2023/08/02 11:36:46;;;;;;;11.43;4.30;;;;;;;28.39;90.05;93759.06;5056138;28;20072;-90
2023/08/02 11:39:34;;;;;;;9.65;4.32;;;;;;;27.78;77.89;93758.31;5056879;28;20033;-88
2023/08/02 11:42:37;;;;;;;11.45;4.35;;;;;;;28.35;82.46;93754.47;5057328;28;20040;-89
2023/08/02 11:48:36;;;;;;;9.80;3.90;;;;;;;28.07;93.95;93758.88;5056968;28;20035;-88
2023/08/02 11:51:02;;;;;;;9.73;4.03;;;;;;;27.77;98.29;93756.78;5034411;28;20135;-90
2023/08/02 11:53:46;;;;;;;14.13;4.95;;;;;;;28.24;94.49;93763.81;5055425;28;20468;-88
2023/08/02 11:56:11;;;;;;;17.08;4.63;;;;;;;28.23;94.86;93757.66;5055579;28;20033;-90
2023/08/02 11:58:36;;;;;;;9.73;5.15;;;;;;;28.17;96.85;93762.69;5056689;28;20227;-90
2023/08/02 12:01:02;;;;;;;15.68;4.93;;;;;;;27.82;100.00;93752.88;5056709;28;20028;-89
2023/08/02 12:03:27;;;;;;;13.48;4.88;;;;;;;28.10;100.00;93757.34;5055797;28;20021;-89
2023/08/02 12:05:59;;;;;;;11.68;4.55;;;;;;;28.03;99.05;93763.53;5055465;28;20025;-87
2023/08/02 12:08:24;;;;;;;14.05;4.80;;;;;;;27.77;96.20;93756.78;5055514;28;20119;-89
2023/08/02 12:10:51;;;;;;;12.45;4.38;;;;;;;28.24;99.14;93756.50;5055060;28;20398;-90
2023/08/02 12:13:17;;;;;;;9.50;3.30;;;;;;;27.67;77.76;93755.66;5055493;28;20129;-87
2023/08/02 12:16:03;;;;;;;7.45;3.50;;;;;;;27.94;77.25;93752.44;5055628;28;20505;-87
2023/08/02 12:18:29;;;;;;;7.28;3.28;;;;;;;27.60;74.46;93755.72;5055567;28;20605;-88
2023/08/02 12:21:13;;;;;;;11.23;3.22;;;;;;;27.83;69.77;93749.03;5055201;28;20037;-90
2023/08/02 12:23:56;;;;;;;10.77;3.30;;;;;;;27.93;71.63;93753.59;5056137;28;20082;-88
2023/08/02 12:26:33;;;;;;;6.95;3.20;;;;;;;28.22;77.78;93754.22;5056091;28;20059;-88
2023/08/02 12:29:17;;;;;;;7.72;3.20;;;;;;;28.13;67.53;93742.34;5055058;28;20106;-87
2023/08/02 12:31:44;;;;;;;9.20;3.00;;;;;;;27.86;74.00;93745.56;5056066;28;20082;-87
2023/08/02 12:34:10;;;;;;;11.02;3.30;;;;;;;28.42;67.45;93739.44;5055244;28;20040;-91
2023/08/02 12:36:36;;;;;;;9.63;3.13;;;;;;;28.18;68.37;93741.94;5055172;28;20033;-92
2023/08/02 12:39:01;;;;;;;7.32;2.67;;;;;;;27.60;70.38;93736.88;5054330;28;20037;-89
2023/08/02 12:41:28;;;;;;;9.90;2.83;;;;;;;27.70;68.43;93740.66;5055443;28;20029;-89
2023/08/02 12:44:12;;;;;;;10.60;2.88;;;;;;;28.32;67.42;93731.03;5055036;28;20029;-91